RYR20AX EPMO-LGAV
Flight info
| Callsign | RYR20AX |
|---|---|
| Flight time | 2h 17m |
| Altitude | 37000 |
| Route | EVINA M66 BABKO DCT ULPUK DCT LAHOR DCT PARAK DCT IRGOR DCT IBISI DCT KRATO DCT MAKED DCT SIGFO UM749 ROPOX |
| Aircraft | B738/M-SDE2E3FGHIRWXY/LB1 |
Departure
| Time | 2026-05-09 03:50 |
|---|---|
| Airport | Warsaw Modlin Airport (EPMO) |
Arrival
| Time | 2026-05-09 06:07 |
|---|---|
| Airport | Athens Eleftherios Venizelos International Airport (LGAV) |
| Time | Latitude | Longitude | Altitude | Speed | Heading |
|---|---|---|---|---|---|
| 2026-05-09 03:24 | 52.44748 | 20.65261 | 337 ft | 0 kts | 206° |
| 2026-05-09 03:42 | 52.44755 | 20.65266 | 332 ft | 2 kts | 202° |
| 2026-05-09 03:42 | 52.44773 | 20.65275 | 335 ft | 3 kts | 173° |
| 2026-05-09 03:42 | 52.44787 | 20.65267 | 333 ft | 3 kts | 117° |
| 2026-05-09 03:43 | 52.44790 | 20.65247 | 333 ft | 1 kts | 81° |
| 2026-05-09 03:43 | 52.44789 | 20.65240 | 333 ft | 0 kts | 81° |
| 2026-05-09 03:45 | 52.44791 | 20.65253 | 333 ft | 3 kts | 82° |
| 2026-05-09 03:46 | 52.44798 | 20.65338 | 335 ft | 13 kts | 82° |
| 2026-05-09 03:46 | 52.44809 | 20.65456 | 333 ft | 18 kts | 81° |
| 2026-05-09 03:46 | 52.44836 | 20.65760 | 337 ft | 20 kts | 81° |
| 2026-05-09 03:46 | 52.44857 | 20.65982 | 337 ft | 20 kts | 81° |
| 2026-05-09 03:47 | 52.44877 | 20.66200 | 337 ft | 19 kts | 81° |
| 2026-05-09 03:47 | 52.44897 | 20.66411 | 335 ft | 18 kts | 81° |
| 2026-05-09 03:47 | 52.44909 | 20.66547 | 335 ft | 18 kts | 81° |
| 2026-05-09 03:47 | 52.44928 | 20.66746 | 337 ft | 17 kts | 81° |
| 2026-05-09 03:48 | 52.44952 | 20.66998 | 333 ft | 17 kts | 81° |
| 2026-05-09 03:48 | 52.45037 | 20.67073 | 333 ft | 16 kts | 351° |
| 2026-05-09 03:48 | 52.45144 | 20.67047 | 334 ft | 15 kts | 352° |
| 2026-05-09 03:48 | 52.45212 | 20.67020 | 336 ft | 15 kts | 341° |
| 2026-05-09 03:49 | 52.45285 | 20.66969 | 338 ft | 10 kts | 297° |
| 2026-05-09 03:49 | 52.45280 | 20.66862 | 336 ft | 9 kts | 261° |
| 2026-05-09 03:49 | 52.45259 | 20.66637 | 333 ft | 47 kts | 261° |
| 2026-05-09 03:49 | 52.45169 | 20.65685 | 338 ft | 119 kts | 261° |
| 2026-05-09 03:50 | 52.45013 | 20.64005 | 410 ft | 171 kts | 262° |
| 2026-05-09 03:50 | 52.44856 | 20.62046 | 1173 ft | 178 kts | 265° |
| 2026-05-09 03:50 | 52.44713 | 20.59874 | 1721 ft | 200 kts | 267° |
| 2026-05-09 03:50 | 52.44554 | 20.57597 | 2532 ft | 203 kts | 263° |
| 2026-05-09 03:51 | 52.44338 | 20.55283 | 3079 ft | 217 kts | 263° |
| 2026-05-09 03:51 | 52.44092 | 20.52667 | 3314 ft | 245 kts | 263° |
| 2026-05-09 03:51 | 52.43820 | 20.49734 | 3566 ft | 276 kts | 263° |
| 2026-05-09 03:51 | 52.43525 | 20.46517 | 4200 ft | 290 kts | 263° |
| 2026-05-09 03:52 | 52.43228 | 20.43256 | 5082 ft | 294 kts | 263° |
| 2026-05-09 03:52 | 52.42689 | 20.40010 | 5965 ft | 301 kts | 244° |
| 2026-05-09 03:52 | 52.41349 | 20.37365 | 6843 ft | 308 kts | 218° |
| 2026-05-09 03:52 | 52.39436 | 20.35779 | 7711 ft | 312 kts | 197° |
| 2026-05-09 03:53 | 52.37313 | 20.34939 | 8568 ft | 317 kts | 193° |
| 2026-05-09 03:53 | 52.35131 | 20.34209 | 9409 ft | 321 kts | 193° |
| 2026-05-09 03:53 | 52.32925 | 20.33505 | 10234 ft | 325 kts | 193° |
| 2026-05-09 03:53 | 52.30692 | 20.32794 | 11006 ft | 328 kts | 193° |
| 2026-05-09 03:54 | 52.28392 | 20.32050 | 11378 ft | 347 kts | 193° |
| 2026-05-09 03:54 | 52.25964 | 20.31253 | 11762 ft | 361 kts | 194° |
| 2026-05-09 03:54 | 52.23510 | 20.30442 | 12447 ft | 366 kts | 194° |
| 2026-05-09 03:54 | 52.21008 | 20.29612 | 13253 ft | 368 kts | 194° |
| 2026-05-09 03:55 | 52.18485 | 20.28770 | 14013 ft | 371 kts | 194° |
| 2026-05-09 03:55 | 52.15945 | 20.27920 | 14670 ft | 374 kts | 194° |
| 2026-05-09 03:55 | 52.13376 | 20.27059 | 15319 ft | 378 kts | 194° |
| 2026-05-09 03:55 | 52.10789 | 20.26191 | 15972 ft | 381 kts | 194° |
| 2026-05-09 03:56 | 52.08180 | 20.25316 | 16618 ft | 384 kts | 194° |
| 2026-05-09 03:56 | 52.05586 | 20.24447 | 17241 ft | 388 kts | 194° |
| 2026-05-09 03:56 | 52.02923 | 20.23556 | 17880 ft | 391 kts | 194° |
| 2026-05-09 03:56 | 52.00238 | 20.22659 | 18494 ft | 395 kts | 194° |
| 2026-05-09 03:57 | 51.97528 | 20.21754 | 19045 ft | 398 kts | 194° |
| 2026-05-09 03:57 | 51.94802 | 20.20845 | 19617 ft | 400 kts | 194° |
| 2026-05-09 03:57 | 51.92072 | 20.19937 | 20175 ft | 402 kts | 194° |
| 2026-05-09 03:57 | 51.89317 | 20.19021 | 20721 ft | 405 kts | 195° |
| 2026-05-09 03:58 | 51.86580 | 20.18112 | 21247 ft | 408 kts | 195° |
| 2026-05-09 03:58 | 51.83788 | 20.17185 | 21764 ft | 410 kts | 195° |
| 2026-05-09 03:58 | 51.80986 | 20.16257 | 22280 ft | 413 kts | 195° |
| 2026-05-09 03:58 | 51.78155 | 20.15320 | 22794 ft | 416 kts | 195° |
| 2026-05-09 03:59 | 51.75311 | 20.14380 | 23286 ft | 418 kts | 195° |
| 2026-05-09 03:59 | 51.72447 | 20.13435 | 23769 ft | 421 kts | 195° |
| 2026-05-09 03:59 | 51.69559 | 20.12482 | 24174 ft | 423 kts | 195° |
| 2026-05-09 03:59 | 51.66670 | 20.11532 | 24613 ft | 424 kts | 195° |
| 2026-05-09 04:00 | 51.63793 | 20.10587 | 25037 ft | 425 kts | 195° |
| 2026-05-09 04:00 | 51.60886 | 20.09633 | 25458 ft | 427 kts | 195° |
| 2026-05-09 04:00 | 51.57963 | 20.08675 | 25865 ft | 428 kts | 195° |
| 2026-05-09 04:00 | 51.55041 | 20.07718 | 26263 ft | 429 kts | 195° |
| 2026-05-09 04:01 | 51.52141 | 20.06770 | 26665 ft | 430 kts | 195° |
| 2026-05-09 04:01 | 51.49188 | 20.05805 | 27061 ft | 431 kts | 195° |
| 2026-05-09 04:01 | 51.46239 | 20.04844 | 27446 ft | 432 kts | 195° |
| 2026-05-09 04:01 | 51.43283 | 20.03881 | 27825 ft | 433 kts | 195° |
| 2026-05-09 04:02 | 51.40324 | 20.02918 | 28189 ft | 434 kts | 195° |
| 2026-05-09 04:02 | 51.37394 | 20.01966 | 28577 ft | 434 kts | 195° |
| 2026-05-09 04:02 | 51.34433 | 20.01007 | 29129 ft | 431 kts | 196° |
| 2026-05-09 04:02 | 51.31508 | 20.00062 | 29776 ft | 425 kts | 196° |
| 2026-05-09 04:03 | 51.28620 | 19.99130 | 30365 ft | 421 kts | 196° |
| 2026-05-09 04:03 | 51.25760 | 19.98207 | 30747 ft | 420 kts | 196° |
| 2026-05-09 04:03 | 51.22881 | 19.97276 | 31015 ft | 421 kts | 196° |
| 2026-05-09 04:03 | 51.20009 | 19.96347 | 31336 ft | 421 kts | 196° |
| 2026-05-09 04:04 | 51.17138 | 19.95422 | 31715 ft | 420 kts | 196° |
| 2026-05-09 04:04 | 51.14312 | 19.94513 | 32056 ft | 419 kts | 196° |
| 2026-05-09 04:04 | 51.11450 | 19.93593 | 32377 ft | 419 kts | 195° |
| 2026-05-09 04:04 | 51.08589 | 19.92675 | 32713 ft | 418 kts | 195° |
| 2026-05-09 04:05 | 51.05741 | 19.91763 | 33078 ft | 416 kts | 195° |
| 2026-05-09 04:05 | 51.02899 | 19.90854 | 33429 ft | 415 kts | 195° |
| 2026-05-09 04:05 | 51.00069 | 19.89950 | 33783 ft | 414 kts | 195° |
| 2026-05-09 04:05 | 50.97281 | 19.89060 | 34116 ft | 413 kts | 195° |
| 2026-05-09 04:06 | 50.94459 | 19.88160 | 34391 ft | 412 kts | 195° |
| 2026-05-09 04:06 | 50.91628 | 19.87258 | 34577 ft | 414 kts | 195° |
| 2026-05-09 04:06 | 50.88788 | 19.86353 | 34740 ft | 416 kts | 195° |
| 2026-05-09 04:06 | 50.85952 | 19.85452 | 34940 ft | 416 kts | 195° |
| 2026-05-09 04:07 | 50.83146 | 19.84562 | 35157 ft | 416 kts | 195° |
| 2026-05-09 04:07 | 50.80297 | 19.83659 | 35335 ft | 418 kts | 195° |
| 2026-05-09 04:07 | 50.77446 | 19.82757 | 35513 ft | 419 kts | 195° |
| 2026-05-09 04:07 | 50.74581 | 19.81851 | 35706 ft | 419 kts | 195° |
| 2026-05-09 04:08 | 50.71716 | 19.80947 | 35890 ft | 420 kts | 195° |
| 2026-05-09 04:08 | 50.68845 | 19.80042 | 36086 ft | 421 kts | 195° |
| 2026-05-09 04:08 | 50.65966 | 19.79136 | 36251 ft | 422 kts | 195° |
| 2026-05-09 04:08 | 50.63082 | 19.78229 | 36405 ft | 423 kts | 195° |
| 2026-05-09 04:09 | 50.60232 | 19.77334 | 36570 ft | 423 kts | 195° |
| 2026-05-09 04:09 | 50.57330 | 19.76424 | 36740 ft | 424 kts | 194° |
| 2026-05-09 04:09 | 50.54427 | 19.75515 | 36910 ft | 425 kts | 194° |
| 2026-05-09 04:09 | 50.51523 | 19.74606 | 37065 ft | 426 kts | 194° |
| 2026-05-09 04:10 | 50.45672 | 19.72778 | 37166 ft | 430 kts | 194° |
| 2026-05-09 04:10 | 50.39856 | 19.70968 | 37157 ft | 426 kts | 194° |
| 2026-05-09 04:11 | 50.34058 | 19.69169 | 37163 ft | 422 kts | 194° |
| 2026-05-09 04:11 | 50.28363 | 19.67404 | 37159 ft | 420 kts | 194° |
| 2026-05-09 04:12 | 50.22661 | 19.65640 | 37161 ft | 418 kts | 194° |
| 2026-05-09 04:12 | 50.16933 | 19.63872 | 37165 ft | 418 kts | 194° |
| 2026-05-09 04:13 | 50.11214 | 19.62112 | 37156 ft | 420 kts | 194° |
| 2026-05-09 04:13 | 50.05500 | 19.60357 | 37167 ft | 422 kts | 194° |
| 2026-05-09 04:14 | 49.99711 | 19.58584 | 37163 ft | 424 kts | 194° |
| 2026-05-09 04:14 | 49.93948 | 19.56824 | 37162 ft | 426 kts | 194° |
| 2026-05-09 04:15 | 49.88115 | 19.55047 | 37161 ft | 427 kts | 194° |
| 2026-05-09 04:15 | 49.82271 | 19.53270 | 37159 ft | 428 kts | 194° |
| 2026-05-09 04:16 | 49.76445 | 19.51504 | 37151 ft | 428 kts | 194° |
| 2026-05-09 04:16 | 49.70595 | 19.49734 | 37151 ft | 428 kts | 194° |
| 2026-05-09 04:17 | 49.64754 | 19.47971 | 37151 ft | 426 kts | 194° |
| 2026-05-09 04:17 | 49.58827 | 19.47229 | 37139 ft | 432 kts | 178° |
| 2026-05-09 04:18 | 49.52845 | 19.48359 | 37140 ft | 433 kts | 176° |
| 2026-05-09 04:18 | 49.46914 | 19.49553 | 37146 ft | 431 kts | 176° |
| 2026-05-09 04:19 | 49.40947 | 19.50706 | 37133 ft | 430 kts | 177° |
| 2026-05-09 04:19 | 49.35031 | 19.51818 | 37150 ft | 430 kts | 177° |
| 2026-05-09 04:20 | 49.29091 | 19.52924 | 37146 ft | 430 kts | 177° |
| 2026-05-09 04:20 | 49.23138 | 19.54030 | 37145 ft | 430 kts | 177° |
| 2026-05-09 04:21 | 49.17212 | 19.55130 | 37137 ft | 431 kts | 177° |
| 2026-05-09 04:22 | 49.08274 | 19.56784 | 37121 ft | 431 kts | 177° |
| 2026-05-09 04:22 | 49.02347 | 19.57878 | 37124 ft | 431 kts | 177° |
| 2026-05-09 04:23 | 48.96383 | 19.58976 | 37115 ft | 431 kts | 177° |
| 2026-05-09 04:23 | 48.90411 | 19.60073 | 37116 ft | 431 kts | 177° |
| 2026-05-09 04:24 | 48.84443 | 19.61167 | 37110 ft | 432 kts | 177° |
| 2026-05-09 04:24 | 48.78499 | 19.62253 | 37100 ft | 432 kts | 177° |
| 2026-05-09 04:25 | 48.72511 | 19.63119 | 37103 ft | 430 kts | 180° |
| 2026-05-09 04:25 | 48.66561 | 19.63718 | 37107 ft | 430 kts | 180° |
| 2026-05-09 04:26 | 48.60576 | 19.64329 | 37091 ft | 431 kts | 180° |
| 2026-05-09 04:26 | 48.54590 | 19.64976 | 37092 ft | 431 kts | 179° |
| 2026-05-09 04:27 | 48.48617 | 19.65638 | 37087 ft | 429 kts | 179° |
| 2026-05-09 04:27 | 48.42698 | 19.66296 | 37095 ft | 428 kts | 179° |
| 2026-05-09 04:28 | 48.36737 | 19.66955 | 37085 ft | 428 kts | 179° |
| 2026-05-09 04:28 | 48.30810 | 19.67607 | 37089 ft | 428 kts | 179° |
| 2026-05-09 04:29 | 48.24856 | 19.68262 | 37084 ft | 429 kts | 179° |
| 2026-05-09 04:29 | 48.18894 | 19.68916 | 37094 ft | 429 kts | 179° |
| 2026-05-09 04:30 | 48.12964 | 19.69565 | 37082 ft | 429 kts | 179° |
| 2026-05-09 04:30 | 48.06992 | 19.70217 | 37091 ft | 429 kts | 179° |
| 2026-05-09 04:31 | 48.01065 | 19.70862 | 37081 ft | 429 kts | 179° |
| 2026-05-09 04:31 | 47.95101 | 19.71511 | 37088 ft | 429 kts | 179° |
| 2026-05-09 04:32 | 47.89131 | 19.72158 | 37084 ft | 430 kts | 179° |
| 2026-05-09 04:32 | 47.83148 | 19.72816 | 37080 ft | 431 kts | 178° |
| 2026-05-09 04:33 | 47.77169 | 19.74015 | 37082 ft | 433 kts | 175° |
| 2026-05-09 04:33 | 47.71239 | 19.75426 | 37076 ft | 434 kts | 175° |
| 2026-05-09 04:34 | 47.65265 | 19.76828 | 37071 ft | 434 kts | 175° |
| 2026-05-09 04:34 | 47.59331 | 19.78179 | 37078 ft | 434 kts | 175° |
| 2026-05-09 04:35 | 47.54358 | 19.79296 | 37068 ft | 434 kts | 175° |
| 2026-05-09 04:35 | 47.48376 | 19.80633 | 37069 ft | 434 kts | 175° |
| 2026-05-09 04:36 | 47.42392 | 19.81968 | 37063 ft | 434 kts | 175° |
| 2026-05-09 04:36 | 47.36444 | 19.83292 | 37062 ft | 434 kts | 175° |
| 2026-05-09 04:37 | 47.30468 | 19.84619 | 37063 ft | 434 kts | 175° |
| 2026-05-09 04:37 | 47.24480 | 19.85947 | 37055 ft | 435 kts | 175° |
| 2026-05-09 04:38 | 47.18489 | 19.87272 | 37052 ft | 435 kts | 175° |
| 2026-05-09 04:38 | 47.12542 | 19.88584 | 37070 ft | 435 kts | 176° |
| 2026-05-09 04:39 | 47.06545 | 19.89905 | 37069 ft | 435 kts | 176° |
| 2026-05-09 04:39 | 47.00586 | 19.91214 | 37072 ft | 435 kts | 176° |
| 2026-05-09 04:40 | 46.94590 | 19.92528 | 37071 ft | 435 kts | 176° |
| 2026-05-09 04:40 | 46.88593 | 19.93839 | 37069 ft | 435 kts | 176° |
| 2026-05-09 04:41 | 46.82596 | 19.95148 | 37073 ft | 435 kts | 176° |
| 2026-05-09 04:41 | 46.76634 | 19.96446 | 37071 ft | 435 kts | 176° |
| 2026-05-09 04:42 | 46.70643 | 19.97747 | 37068 ft | 435 kts | 176° |
| 2026-05-09 04:42 | 46.64647 | 19.99046 | 37058 ft | 435 kts | 176° |
| 2026-05-09 04:43 | 46.58672 | 20.00338 | 37050 ft | 436 kts | 176° |
| 2026-05-09 04:43 | 46.52658 | 20.01636 | 37051 ft | 436 kts | 176° |
| 2026-05-09 04:44 | 46.46648 | 20.02930 | 37048 ft | 436 kts | 176° |
| 2026-05-09 04:44 | 46.40680 | 20.04212 | 37051 ft | 436 kts | 176° |
| 2026-05-09 04:45 | 46.34661 | 20.05502 | 37048 ft | 436 kts | 176° |
| 2026-05-09 04:45 | 46.28655 | 20.06787 | 37041 ft | 436 kts | 176° |
| 2026-05-09 04:46 | 46.22628 | 20.08073 | 37042 ft | 437 kts | 176° |
| 2026-05-09 04:46 | 46.16646 | 20.09388 | 37039 ft | 438 kts | 173° |
| 2026-05-09 04:47 | 46.10760 | 20.11979 | 37038 ft | 444 kts | 166° |
| 2026-05-09 04:47 | 46.04917 | 20.14900 | 37040 ft | 444 kts | 166° |
| 2026-05-09 04:48 | 45.99091 | 20.17781 | 37040 ft | 444 kts | 166° |
| 2026-05-09 04:48 | 45.93228 | 20.20631 | 37039 ft | 444 kts | 166° |
| 2026-05-09 04:49 | 45.87394 | 20.23445 | 37039 ft | 444 kts | 166° |
| 2026-05-09 04:49 | 45.81514 | 20.26272 | 37036 ft | 445 kts | 167° |
| 2026-05-09 04:50 | 45.75673 | 20.29074 | 37035 ft | 445 kts | 167° |
| 2026-05-09 04:50 | 45.69786 | 20.31893 | 37035 ft | 445 kts | 167° |
| 2026-05-09 04:51 | 45.63888 | 20.34712 | 37041 ft | 446 kts | 167° |
| 2026-05-09 04:51 | 45.58015 | 20.37512 | 37035 ft | 446 kts | 167° |
| 2026-05-09 04:52 | 45.52110 | 20.40322 | 37034 ft | 447 kts | 166° |
| 2026-05-09 04:52 | 45.46232 | 20.43112 | 37032 ft | 447 kts | 167° |
| 2026-05-09 04:53 | 45.40312 | 20.45916 | 37044 ft | 448 kts | 166° |
| 2026-05-09 04:53 | 45.34424 | 20.48699 | 37035 ft | 448 kts | 167° |
| 2026-05-09 04:54 | 45.28498 | 20.51494 | 37039 ft | 448 kts | 167° |
| 2026-05-09 04:54 | 45.22565 | 20.54286 | 37036 ft | 448 kts | 167° |
| 2026-05-09 04:55 | 45.16631 | 20.57073 | 37036 ft | 449 kts | 166° |
| 2026-05-09 04:55 | 45.10730 | 20.59837 | 37043 ft | 449 kts | 167° |
| 2026-05-09 04:56 | 45.04794 | 20.62612 | 37045 ft | 449 kts | 167° |
| 2026-05-09 04:56 | 44.98886 | 20.65368 | 37044 ft | 449 kts | 167° |
| 2026-05-09 04:57 | 44.92945 | 20.68134 | 37047 ft | 450 kts | 167° |
| 2026-05-09 04:57 | 44.86979 | 20.70904 | 37051 ft | 450 kts | 167° |
| 2026-05-09 04:58 | 44.81021 | 20.73667 | 37040 ft | 450 kts | 167° |
| 2026-05-09 04:58 | 44.75069 | 20.76420 | 37040 ft | 450 kts | 167° |
| 2026-05-09 04:59 | 44.69171 | 20.79229 | 37042 ft | 451 kts | 165° |
| 2026-05-09 04:59 | 44.63299 | 20.82354 | 37045 ft | 451 kts | 164° |
| 2026-05-09 05:00 | 44.57434 | 20.85523 | 37048 ft | 450 kts | 164° |
| 2026-05-09 05:00 | 44.51611 | 20.88624 | 37045 ft | 450 kts | 165° |
| 2026-05-09 05:01 | 44.45739 | 20.91719 | 37048 ft | 449 kts | 165° |
| 2026-05-09 05:01 | 44.39878 | 20.94793 | 37054 ft | 449 kts | 165° |
| 2026-05-09 05:02 | 44.34056 | 20.97840 | 37045 ft | 449 kts | 165° |
| 2026-05-09 05:02 | 44.28201 | 21.00898 | 37045 ft | 448 kts | 165° |
| 2026-05-09 05:03 | 44.22356 | 21.03946 | 37045 ft | 448 kts | 165° |
| 2026-05-09 05:03 | 44.16539 | 21.06973 | 37052 ft | 448 kts | 165° |
| 2026-05-09 05:04 | 44.10688 | 21.10011 | 37063 ft | 448 kts | 165° |
| 2026-05-09 05:04 | 44.04859 | 21.13030 | 37033 ft | 448 kts | 165° |
| 2026-05-09 05:05 | 43.99008 | 21.16055 | 37051 ft | 450 kts | 165° |
| 2026-05-09 05:05 | 43.93108 | 21.19097 | 37065 ft | 452 kts | 165° |
| 2026-05-09 05:06 | 43.87226 | 21.22126 | 37059 ft | 455 kts | 165° |
| 2026-05-09 05:06 | 43.81274 | 21.25183 | 37057 ft | 456 kts | 165° |
| 2026-05-09 05:07 | 43.75309 | 21.28243 | 37054 ft | 456 kts | 165° |
| 2026-05-09 05:07 | 43.69358 | 21.31289 | 37057 ft | 455 kts | 166° |
| 2026-05-09 05:08 | 43.63460 | 21.34301 | 37056 ft | 453 kts | 166° |
| 2026-05-09 05:08 | 43.57546 | 21.37314 | 37055 ft | 452 kts | 166° |
| 2026-05-09 05:09 | 43.51686 | 21.40293 | 37046 ft | 450 kts | 166° |
| 2026-05-09 05:09 | 43.45832 | 21.43263 | 37037 ft | 447 kts | 166° |
| 2026-05-09 05:10 | 43.40027 | 21.46204 | 37043 ft | 442 kts | 166° |
| 2026-05-09 05:10 | 43.34243 | 21.49124 | 37065 ft | 441 kts | 166° |
| 2026-05-09 05:11 | 43.28498 | 21.52018 | 37059 ft | 443 kts | 166° |
| 2026-05-09 05:11 | 43.22674 | 21.54947 | 37067 ft | 446 kts | 166° |
| 2026-05-09 05:12 | 43.16807 | 21.57893 | 37055 ft | 449 kts | 166° |
| 2026-05-09 05:12 | 43.10963 | 21.60823 | 37069 ft | 451 kts | 166° |
| 2026-05-09 05:13 | 43.05040 | 21.63787 | 37058 ft | 453 kts | 166° |
| 2026-05-09 05:13 | 42.99126 | 21.66740 | 37062 ft | 455 kts | 166° |
| 2026-05-09 05:14 | 42.93156 | 21.69665 | 37062 ft | 456 kts | 168° |
| 2026-05-09 05:14 | 42.87106 | 21.72337 | 37048 ft | 456 kts | 168° |
| 2026-05-09 05:15 | 42.81050 | 21.74956 | 37051 ft | 456 kts | 168° |
| 2026-05-09 05:15 | 42.75047 | 21.77580 | 37059 ft | 455 kts | 168° |
| 2026-05-09 05:16 | 42.69028 | 21.80229 | 37055 ft | 453 kts | 168° |
| 2026-05-09 05:16 | 42.63036 | 21.82866 | 37069 ft | 451 kts | 168° |
| 2026-05-09 05:17 | 42.57070 | 21.85485 | 37063 ft | 449 kts | 168° |
| 2026-05-09 05:17 | 42.51144 | 21.88080 | 37066 ft | 448 kts | 168° |
| 2026-05-09 05:18 | 42.45211 | 21.90673 | 37076 ft | 447 kts | 168° |
| 2026-05-09 05:18 | 42.39284 | 21.93257 | 37076 ft | 447 kts | 168° |
| 2026-05-09 05:19 | 42.33388 | 21.95823 | 37077 ft | 447 kts | 168° |
| 2026-05-09 05:19 | 42.27452 | 21.98402 | 37090 ft | 448 kts | 168° |
| 2026-05-09 05:20 | 42.21491 | 22.00986 | 37076 ft | 450 kts | 168° |
| 2026-05-09 05:20 | 42.15525 | 22.03568 | 37064 ft | 450 kts | 168° |
| 2026-05-09 05:21 | 42.09595 | 22.06131 | 37080 ft | 450 kts | 168° |
| 2026-05-09 05:21 | 42.03610 | 22.08724 | 37086 ft | 452 kts | 167° |
| 2026-05-09 05:22 | 41.97650 | 22.11541 | 37065 ft | 454 kts | 166° |
| 2026-05-09 05:22 | 41.91739 | 22.14424 | 37078 ft | 454 kts | 166° |
| 2026-05-09 05:23 | 41.85772 | 22.17306 | 37064 ft | 455 kts | 166° |
| 2026-05-09 05:23 | 41.80813 | 22.19678 | 37066 ft | 455 kts | 167° |
| 2026-05-09 05:24 | 41.74837 | 22.22524 | 37072 ft | 455 kts | 167° |
| 2026-05-09 05:24 | 41.68893 | 22.25348 | 37057 ft | 456 kts | 167° |
| 2026-05-09 05:25 | 41.62892 | 22.28194 | 37067 ft | 456 kts | 167° |
| 2026-05-09 05:25 | 41.53905 | 22.32449 | 37058 ft | 455 kts | 167° |
| 2026-05-09 05:26 | 41.47972 | 22.35250 | 37051 ft | 454 kts | 167° |
| 2026-05-09 05:26 | 41.42032 | 22.38050 | 37056 ft | 452 kts | 167° |
| 2026-05-09 05:27 | 41.36084 | 22.40846 | 37045 ft | 452 kts | 167° |
| 2026-05-09 05:27 | 41.30184 | 22.43616 | 37056 ft | 451 kts | 167° |
| 2026-05-09 05:28 | 41.24244 | 22.46398 | 37061 ft | 451 kts | 167° |
| 2026-05-09 05:28 | 41.18319 | 22.49169 | 37056 ft | 452 kts | 167° |
| 2026-05-09 05:29 | 41.12414 | 22.51927 | 37052 ft | 453 kts | 166° |
| 2026-05-09 05:29 | 41.06498 | 22.54987 | 37058 ft | 457 kts | 164° |
| 2026-05-09 05:30 | 41.00641 | 22.58196 | 37044 ft | 458 kts | 164° |
| 2026-05-09 05:30 | 40.94719 | 22.61416 | 37057 ft | 459 kts | 164° |
| 2026-05-09 05:31 | 40.88824 | 22.64578 | 37045 ft | 459 kts | 165° |
| 2026-05-09 05:31 | 40.82891 | 22.67738 | 37050 ft | 459 kts | 165° |
| 2026-05-09 05:32 | 40.76953 | 22.70891 | 37046 ft | 459 kts | 165° |
| 2026-05-09 05:32 | 40.71059 | 22.74013 | 37149 ft | 460 kts | 162° |
| 2026-05-09 05:33 | 40.65102 | 22.77165 | 37052 ft | 461 kts | 162° |
| 2026-05-09 05:33 | 40.59132 | 22.80322 | 37049 ft | 461 kts | 162° |
| 2026-05-09 05:34 | 40.53218 | 22.83442 | 37042 ft | 460 kts | 162° |
| 2026-05-09 05:34 | 40.47272 | 22.86572 | 37047 ft | 459 kts | 162° |
| 2026-05-09 05:35 | 40.41335 | 22.89691 | 37049 ft | 459 kts | 162° |
| 2026-05-09 05:35 | 40.35400 | 22.92802 | 37046 ft | 458 kts | 162° |
| 2026-05-09 05:36 | 40.29506 | 22.95886 | 37045 ft | 458 kts | 163° |
| 2026-05-09 05:36 | 40.23586 | 22.98978 | 37051 ft | 457 kts | 163° |
| 2026-05-09 05:37 | 40.17667 | 23.02064 | 37054 ft | 457 kts | 163° |
| 2026-05-09 05:37 | 40.11784 | 23.05125 | 37054 ft | 458 kts | 163° |
| 2026-05-09 05:38 | 40.05854 | 23.08205 | 37053 ft | 458 kts | 163° |
| 2026-05-09 05:38 | 39.99909 | 23.11287 | 37057 ft | 459 kts | 163° |
| 2026-05-09 05:39 | 39.93989 | 23.14350 | 37055 ft | 460 kts | 163° |
| 2026-05-09 05:39 | 39.88032 | 23.17427 | 37054 ft | 461 kts | 163° |
| 2026-05-09 05:40 | 39.82057 | 23.20507 | 37054 ft | 461 kts | 164° |
| 2026-05-09 05:40 | 39.76079 | 23.23583 | 37054 ft | 462 kts | 164° |
| 2026-05-09 05:41 | 39.70117 | 23.26645 | 37054 ft | 463 kts | 164° |
| 2026-05-09 05:41 | 39.64109 | 23.29725 | 37052 ft | 463 kts | 164° |
| 2026-05-09 05:42 | 39.58143 | 23.32777 | 37048 ft | 464 kts | 165° |
| 2026-05-09 05:42 | 39.52122 | 23.35853 | 37049 ft | 464 kts | 165° |
| 2026-05-09 05:43 | 39.46132 | 23.38906 | 37042 ft | 465 kts | 165° |
| 2026-05-09 05:43 | 39.40101 | 23.41975 | 37038 ft | 465 kts | 165° |
| 2026-05-09 05:44 | 39.34067 | 23.45040 | 37029 ft | 466 kts | 165° |
| 2026-05-09 05:44 | 39.28058 | 23.48086 | 37017 ft | 466 kts | 165° |
| 2026-05-09 05:45 | 39.21999 | 23.51152 | 37019 ft | 466 kts | 165° |
| 2026-05-09 05:45 | 39.15934 | 23.54215 | 37021 ft | 467 kts | 166° |
| 2026-05-09 05:46 | 39.10038 | 23.57200 | 36994 ft | 444 kts | 166° |
| 2026-05-09 05:46 | 39.07209 | 23.58631 | 37000 ft | 430 kts | 166° |
| 2026-05-09 05:46 | 39.04458 | 23.60016 | 37003 ft | 415 kts | 167° |
| 2026-05-09 05:47 | 38.99109 | 23.62688 | 37045 ft | 415 kts | 167° |
| 2026-05-09 05:47 | 38.93616 | 23.65209 | 36462 ft | 433 kts | 176° |
| 2026-05-09 05:48 | 38.90605 | 23.65756 | 35838 ft | 440 kts | 183° |
| 2026-05-09 05:48 | 38.87542 | 23.66134 | 35177 ft | 443 kts | 182° |
| 2026-05-09 05:48 | 38.85507 | 23.66405 | 34750 ft | 444 kts | 182° |
| 2026-05-09 05:48 | 38.81373 | 23.66989 | 33882 ft | 447 kts | 182° |
| 2026-05-09 05:49 | 38.78274 | 23.67458 | 33154 ft | 450 kts | 179° |
| 2026-05-09 05:49 | 38.75205 | 23.68038 | 32459 ft | 450 kts | 180° |
| 2026-05-09 05:49 | 38.72123 | 23.68655 | 31713 ft | 446 kts | 179° |
| 2026-05-09 05:49 | 38.69062 | 23.69322 | 30980 ft | 442 kts | 178° |
| 2026-05-09 05:50 | 38.66040 | 23.69995 | 30276 ft | 437 kts | 178° |
| 2026-05-09 05:50 | 38.63062 | 23.70662 | 29497 ft | 432 kts | 178° |
| 2026-05-09 05:50 | 38.60109 | 23.71323 | 28685 ft | 427 kts | 178° |
| 2026-05-09 05:50 | 38.57231 | 23.71967 | 27930 ft | 422 kts | 178° |
| 2026-05-09 05:51 | 38.54351 | 23.72611 | 27182 ft | 418 kts | 178° |
| 2026-05-09 05:51 | 38.51491 | 23.73249 | 26453 ft | 413 kts | 178° |
| 2026-05-09 05:51 | 38.48669 | 23.73874 | 25736 ft | 409 kts | 178° |
| 2026-05-09 05:51 | 38.45900 | 23.74483 | 25051 ft | 405 kts | 178° |
| 2026-05-09 05:52 | 38.43134 | 23.75088 | 24383 ft | 401 kts | 178° |
| 2026-05-09 05:52 | 38.40397 | 23.75713 | 23717 ft | 400 kts | 173° |
| 2026-05-09 05:52 | 38.37789 | 23.77096 | 22925 ft | 412 kts | 153° |
| 2026-05-09 05:52 | 38.35611 | 23.79520 | 22175 ft | 420 kts | 133° |
| 2026-05-09 05:53 | 38.34057 | 23.82698 | 21456 ft | 422 kts | 119° |
| 2026-05-09 05:53 | 38.32845 | 23.86047 | 20750 ft | 420 kts | 116° |
| 2026-05-09 05:53 | 38.31687 | 23.89455 | 20041 ft | 417 kts | 115° |
| 2026-05-09 05:53 | 38.30552 | 23.92835 | 19359 ft | 413 kts | 115° |
| 2026-05-09 05:54 | 38.29429 | 23.96188 | 18686 ft | 410 kts | 115° |
| 2026-05-09 05:54 | 38.28313 | 23.99512 | 17968 ft | 406 kts | 115° |
| 2026-05-09 05:54 | 38.27205 | 24.02803 | 17216 ft | 402 kts | 115° |
| 2026-05-09 05:54 | 38.26107 | 24.06055 | 16483 ft | 398 kts | 115° |
| 2026-05-09 05:55 | 38.25015 | 24.09280 | 15760 ft | 394 kts | 115° |
| 2026-05-09 05:55 | 38.23935 | 24.12462 | 15059 ft | 389 kts | 115° |
| 2026-05-09 05:55 | 38.22892 | 24.15605 | 14377 ft | 385 kts | 112° |
| 2026-05-09 05:55 | 38.22003 | 24.18814 | 13690 ft | 381 kts | 110° |
| 2026-05-09 05:56 | 38.21198 | 24.21934 | 13350 ft | 366 kts | 109° |
| 2026-05-09 05:56 | 38.20435 | 24.24954 | 13109 ft | 351 kts | 109° |
| 2026-05-09 05:56 | 38.19707 | 24.27866 | 12843 ft | 340 kts | 109° |
| 2026-05-09 05:56 | 38.19002 | 24.30713 | 12606 ft | 335 kts | 109° |
| 2026-05-09 05:57 | 38.18511 | 24.33586 | 12230 ft | 332 kts | 92° |
| 2026-05-09 05:57 | 38.18866 | 24.36462 | 11721 ft | 328 kts | 66° |
| 2026-05-09 05:57 | 38.20036 | 24.38851 | 11235 ft | 319 kts | 41° |
| 2026-05-09 05:57 | 38.21835 | 24.40437 | 10778 ft | 313 kts | 17° |
| 2026-05-09 05:58 | 38.23937 | 24.40984 | 10307 ft | 305 kts | 353° |
| 2026-05-09 05:58 | 38.25972 | 24.40473 | 9838 ft | 296 kts | 330° |
| 2026-05-09 05:58 | 38.27655 | 24.39062 | 9461 ft | 284 kts | 310° |
| 2026-05-09 05:58 | 38.28773 | 24.37080 | 9049 ft | 277 kts | 291° |
| 2026-05-09 05:59 | 38.29272 | 24.34737 | 8650 ft | 274 kts | 273° |
| 2026-05-09 05:59 | 38.29111 | 24.32332 | 8257 ft | 274 kts | 256° |
| 2026-05-09 05:59 | 38.28402 | 24.30080 | 7863 ft | 277 kts | 240° |
| 2026-05-09 05:59 | 38.27127 | 24.28226 | 7476 ft | 280 kts | 226° |
| 2026-05-09 06:00 | 38.25684 | 24.26565 | 7141 ft | 279 kts | 225° |
| 2026-05-09 06:00 | 38.24231 | 24.24929 | 6853 ft | 277 kts | 224° |
| 2026-05-09 06:00 | 38.22804 | 24.23323 | 6522 ft | 277 kts | 224° |
| 2026-05-09 06:00 | 38.21365 | 24.21697 | 6207 ft | 275 kts | 225° |
| 2026-05-09 06:01 | 38.19941 | 24.20087 | 5876 ft | 271 kts | 225° |
| 2026-05-09 06:01 | 38.18554 | 24.18516 | 5534 ft | 263 kts | 225° |
| 2026-05-09 06:01 | 38.17206 | 24.16989 | 5242 ft | 256 kts | 225° |
| 2026-05-09 06:01 | 38.15885 | 24.15488 | 4897 ft | 253 kts | 225° |
| 2026-05-09 06:02 | 38.14584 | 24.14011 | 4557 ft | 247 kts | 224° |
| 2026-05-09 06:02 | 38.13327 | 24.12559 | 4223 ft | 240 kts | 227° |
| 2026-05-09 06:02 | 38.12134 | 24.11106 | 3897 ft | 236 kts | 224° |
| 2026-05-09 06:02 | 38.10888 | 24.09776 | 3566 ft | 232 kts | 220° |
| 2026-05-09 06:03 | 38.09635 | 24.08555 | 3275 ft | 227 kts | 219° |
| 2026-05-09 06:03 | 38.08400 | 24.07382 | 3076 ft | 214 kts | 219° |
| 2026-05-09 06:03 | 38.07253 | 24.06291 | 3032 ft | 198 kts | 219° |
| 2026-05-09 06:03 | 38.06201 | 24.05289 | 3002 ft | 180 kts | 219° |
| 2026-05-09 06:04 | 38.05245 | 24.04377 | 2951 ft | 169 kts | 219° |
| 2026-05-09 06:04 | 38.04291 | 24.03465 | 2701 ft | 171 kts | 219° |
| 2026-05-09 06:04 | 38.03355 | 24.02571 | 2451 ft | 169 kts | 218° |
| 2026-05-09 06:04 | 38.02421 | 24.01681 | 2219 ft | 167 kts | 217° |
| 2026-05-09 06:05 | 38.01497 | 24.00799 | 2027 ft | 166 kts | 216° |
| 2026-05-09 06:05 | 38.00571 | 23.99916 | 1790 ft | 165 kts | 217° |
| 2026-05-09 06:05 | 37.99657 | 23.99043 | 1578 ft | 162 kts | 216° |
| 2026-05-09 06:05 | 37.98774 | 23.98201 | 1378 ft | 153 kts | 216° |
| 2026-05-09 06:06 | 37.97925 | 23.97391 | 1146 ft | 155 kts | 217° |
| 2026-05-09 06:06 | 37.97078 | 23.96577 | 969 ft | 151 kts | 217° |
| 2026-05-09 06:06 | 37.96247 | 23.95773 | 737 ft | 150 kts | 216° |
| 2026-05-09 06:06 | 37.95427 | 23.94993 | 516 ft | 150 kts | 216° |
| 2026-05-09 06:07 | 37.94597 | 23.94217 | 326 ft | 147 kts | 217° |
| 2026-05-09 06:07 | 37.93837 | 23.93494 | 293 ft | 118 kts | 217° |
| 2026-05-09 06:07 | 37.93307 | 23.92991 | 288 ft | 65 kts | 217° |
| 2026-05-09 06:07 | 37.93072 | 23.92839 | 291 ft | 26 kts | 189° |
| 2026-05-09 06:08 | 37.92929 | 23.92878 | 299 ft | 18 kts | 95° |
| 2026-05-09 06:08 | 37.93011 | 23.92989 | 299 ft | 18 kts | 36° |
| 2026-05-09 06:08 | 37.93106 | 23.93080 | 298 ft | 17 kts | 37° |
| 2026-05-09 06:08 | 37.93199 | 23.93168 | 301 ft | 16 kts | 37° |
| 2026-05-09 06:09 | 37.93280 | 23.93245 | 298 ft | 14 kts | 37° |
| 2026-05-09 06:09 | 37.93362 | 23.93324 | 299 ft | 17 kts | 37° |
| 2026-05-09 06:09 | 37.93424 | 23.93442 | 301 ft | 18 kts | 112° |
| 2026-05-09 06:09 | 37.93350 | 23.93573 | 301 ft | 19 kts | 127° |
| 2026-05-09 06:10 | 37.93269 | 23.93710 | 301 ft | 19 kts | 128° |
| 2026-05-09 06:10 | 37.93190 | 23.93842 | 303 ft | 18 kts | 127° |
| 2026-05-09 06:10 | 37.93113 | 23.93969 | 302 ft | 16 kts | 128° |
| 2026-05-09 06:10 | 37.93103 | 23.94055 | 300 ft | 16 kts | 62° |
| 2026-05-09 06:11 | 37.93187 | 23.94142 | 303 ft | 15 kts | 36° |
| 2026-05-09 06:11 | 37.93270 | 23.94221 | 301 ft | 15 kts | 45° |
| 2026-05-09 06:11 | 37.93256 | 23.94333 | 301 ft | 14 kts | 126° |
| 2026-05-09 06:11 | 37.93186 | 23.94450 | 303 ft | 8 kts | 127° |
| 2026-05-09 06:12 | 37.93163 | 23.94460 | 302 ft | 6 kts | 196° |
| 2026-05-09 06:12 | 37.93131 | 23.94431 | 302 ft | 6 kts | 217° |
| 2026-05-09 06:12 | 37.93114 | 23.94415 | 302 ft | 1 kts | 216° |
| 2026-05-09 06:12 | 37.93113 | 23.94414 | 302 ft | 0 kts | 217° |